Time;durP1;ratioP1;P1;durP2;ratioP2;P2;SDS_P1;SDS_P2;PMS_P1;PMS_P2;Temp;Humidity;BMP_temperature;BMP_pressure;BME280_temperature;BME280_humidity;BME280_pressure;Samples;Min_cycle;Max_cycle;Signal;HPM_P1;HPM_P2
2021/07/01 16:13:58;;;;;;;20.13;8.25;;;24.20;90.00;;;;;;5120339;28;20052;-88
2021/07/01 16:17:31;;;;;;;18.45;7.85;;;24.10;90.10;;;;;;5125573;28;20078;-88
2021/07/01 16:21:39;;;;;;;17.65;7.97;;;24.60;90.70;;;;;;5109431;28;20032;-90
2021/07/01 16:24:36;;;;;;;17.60;8.23;;;24.20;90.70;;;;;;5130878;27;20406;-87
2021/07/01 16:28:19;;;;;;;17.48;8.43;;;24.40;90.70;;;;;;5138769;27;20361;-92
2021/07/01 16:31:29;;;;;;;16.38;7.53;;;24.90;90.50;;;;;;5104363;27;20428;-92
2021/07/01 16:35:21;;;;;;;17.20;8.00;;;25.60;90.20;;;;;;5100185;28;20056;-91
2021/07/01 16:49:09;;;;;;;27.30;9.77;;;26.80;89.30;;;;;;5060288;27;1353258;-91
2021/07/01 16:51:51;;;;;;;22.80;9.70;;;26.80;88.30;;;;;;5123715;27;20414;-89
2021/07/01 16:54:50;;;;;;;15.60;8.13;;;26.00;87.90;;;;;;5126518;27;20409;-93
2021/07/01 16:58:26;;;;;;;18.90;9.77;;;25.70;88.40;;;;;;5079983;28;20405;-89
2021/07/01 17:01:10;;;;;;;22.67;9.15;;;25.50;88.80;;;;;;5105818;28;20388;-90
2021/07/01 17:04:31;;;;;;;14.02;8.27;;;25.50;89.40;;;;;;5093400;27;20413;-91
2021/07/01 17:07:44;;;;;;;16.60;8.70;;;25.40;87.80;;;;;;5152584;27;20422;-91
2021/07/01 17:21:52;;;;;;;18.00;8.35;;;25.40;88.60;;;;;;5110160;27;20745;-91
2021/07/01 17:24:49;;;;;;;15.65;8.20;;;24.50;90.00;;;;;;5053045;28;20938;-91
2021/07/01 17:27:38;;;;;;;19.55;8.65;;;24.30;90.30;;;;;;5095082;27;20957;-91
2021/07/01 17:30:17;;;;;;;17.00;8.98;;;24.30;90.30;;;;;;5099713;27;20109;-89
2021/07/01 17:33:00;;;;;;;18.88;8.88;;;24.40;90.30;;;;;;5069398;27;20416;-90
2021/07/01 17:35:39;;;;;;;18.42;8.80;;;24.60;90.20;;;;;;5077518;27;20394;-89
2021/07/01 17:38:22;;;;;;;19.58;8.82;;;24.80;90.10;;;;;;5148469;27;20474;-91
2021/07/01 17:41:03;;;;;;;17.35;7.32;;;25.00;90.10;;;;;;5070671;27;20409;-89
2021/07/01 17:43:59;;;;;;;18.13;7.18;;;25.20;90.00;;;;;;5101871;27;20417;-89
2021/07/01 17:46:54;;;;;;;15.05;7.45;;;25.30;90.00;;;;;;5121862;27;20419;-91
2021/07/01 17:49:38;;;;;;;18.10;9.20;;;25.30;89.20;;;;;;4942222;27;4036595;-89
2021/07/01 17:52:53;;;;;;;19.83;9.02;;;25.20;89.60;;;;;;5136374;27;20440;-89
2021/07/01 17:55:38;;;;;;;17.20;8.23;;;25.10;89.90;;;;;;5111438;27;20424;-91
2021/07/01 17:58:18;;;;;;;16.35;8.43;;;25.00;90.20;;;;;;5114293;27;20399;-91
2021/07/01 18:01:43;;;;;;;23.60;7.93;;;25.10;90.10;;;;;;5045110;28;20367;-89
2021/07/01 18:15:57;;;;;;;19.02;8.32;;;25.00;90.10;;;;;;5726575;21;16291433;-89
2021/07/01 18:19:33;;;;;;;;;;;;;;;;;;;;;
2021/07/01 18:33:09;;;;;;;20.17;9.50;;;23.80;90.20;;;;;;5369835;22;21052505;-91
2021/07/01 18:48:27;;;;;;;21.58;8.77;;;22.90;91.10;;;;;;6015946;22;6833212;-92
2021/07/01 18:52:05;;;;;;;15.25;7.57;;;22.40;91.80;;;;;;5080726;27;20384;-90
2021/07/01 18:55:35;;;;;;;16.02;7.70;;;22.30;92.00;;;;;;5037054;28;20052;-91
2021/07/01 18:59:21;;;;;;;19.58;8.35;;;22.70;91.80;;;;;;5087062;27;1976957;-92
2021/07/01 19:03:01;;;;;;;19.42;8.23;;;22.30;91.80;;;;;;4554176;27;16900194;-91
2021/07/01 19:06:53;;;;;;;20.23;9.63;;;22.20;91.90;;;;;;4876756;27;7132706;-88
2021/07/01 19:10:23;;;;;;;14.05;7.55;;;22.20;92.70;;;;;;5115093;28;20047;-91
2021/07/01 19:13:20;;;;;;;16.77;7.07;;;22.10;92.50;;;;;;5076037;28;20048;-90
2021/07/01 19:16:20;;;;;;;21.85;8.77;;;22.00;92.40;;;;;;4991271;27;2556167;-90
2021/07/01 19:19:16;;;;;;;19.88;8.55;;;22.10;92.70;;;;;;5112799;27;20489;-88
2021/07/01 19:22:01;;;;;;;21.92;10.35;;;21.90;92.40;;;;;;5068053;27;1599392;-89
2021/07/01 19:25:08;;;;;;;18.50;9.63;;;21.90;92.50;;;;;;5120629;27;20224;-89
2021/07/01 19:28:06;;;;;;;18.17;8.30;;;21.90;92.90;;;;;;5097629;28;20064;-90
2021/07/01 19:31:17;;;;;;;19.98;8.68;;;21.80;92.70;;;;;;5060068;27;20431;-89
2021/07/01 19:34:53;;;;;;;22.40;7.80;;;21.90;93.00;;;;;;5044937;27;20570;-89
